sensor_id;sensor_type;location;lat;lon;timestamp;P1;durP1;ratioP1;P2;durP2;ratioP2
22152;SDS011;11242;50.536;12.688;2023-05-07T00:01:06;54.50;;;35.05;;
22152;SDS011;11242;50.536;12.688;2023-05-07T00:03:31;57.60;;;36.10;;
22152;SDS011;11242;50.536;12.688;2023-05-07T00:05:57;51.28;;;34.35;;
22152;SDS011;11242;50.536;12.688;2023-05-07T00:08:23;54.75;;;34.38;;
22152;SDS011;11242;50.536;12.688;2023-05-07T00:10:49;53.92;;;34.80;;
22152;SDS011;11242;50.536;12.688;2023-05-07T00:13:15;51.95;;;34.00;;
22152;SDS011;11242;50.536;12.688;2023-05-07T00:15:40;49.08;;;33.40;;
22152;SDS011;11242;50.536;12.688;2023-05-07T00:18:06;50.38;;;33.80;;
22152;SDS011;11242;50.536;12.688;2023-05-07T00:20:31;53.95;;;36.08;;
22152;SDS011;11242;50.536;12.688;2023-05-07T00:22:57;52.92;;;34.72;;
22152;SDS011;11242;50.536;12.688;2023-05-07T00:25:23;54.22;;;35.55;;
22152;SDS011;11242;50.536;12.688;2023-05-07T00:27:48;54.83;;;34.38;;
22152;SDS011;11242;50.536;12.688;2023-05-07T00:30:14;51.05;;;34.38;;
22152;SDS011;11242;50.536;12.688;2023-05-07T00:32:40;50.50;;;33.13;;
22152;SDS011;11242;50.536;12.688;2023-05-07T00:35:06;49.63;;;32.95;;
22152;SDS011;11242;50.536;12.688;2023-05-07T00:37:32;51.60;;;33.92;;
22152;SDS011;11242;50.536;12.688;2023-05-07T00:39:58;52.38;;;33.70;;
22152;SDS011;11242;50.536;12.688;2023-05-07T00:42:24;50.70;;;34.13;;
22152;SDS011;11242;50.536;12.688;2023-05-07T00:44:49;51.40;;;32.55;;
22152;SDS011;11242;50.536;12.688;2023-05-07T00:47:15;50.95;;;32.80;;
22152;SDS011;11242;50.536;12.688;2023-05-07T00:49:42;48.20;;;32.53;;
22152;SDS011;11242;50.536;12.688;2023-05-07T00:52:13;48.03;;;32.33;;
22152;SDS011;11242;50.536;12.688;2023-05-07T00:54:41;46.33;;;30.70;;
22152;SDS011;11242;50.536;12.688;2023-05-07T00:57:07;45.80;;;29.52;;
22152;SDS011;11242;50.536;12.688;2023-05-07T00:59:37;44.70;;;29.02;;
22152;SDS011;11242;50.536;12.688;2023-05-07T01:02:03;45.47;;;30.63;;
22152;SDS011;11242;50.536;12.688;2023-05-07T01:04:29;45.08;;;30.10;;
22152;SDS011;11242;50.536;12.688;2023-05-07T01:06:55;46.70;;;30.88;;
22152;SDS011;11242;50.536;12.688;2023-05-07T01:09:23;43.05;;;27.95;;
22152;SDS011;11242;50.536;12.688;2023-05-07T01:11:50;43.35;;;29.80;;
22152;SDS011;11242;50.536;12.688;2023-05-07T01:14:17;45.55;;;29.10;;
22152;SDS011;11242;50.536;12.688;2023-05-07T01:16:44;44.17;;;28.40;;
22152;SDS011;11242;50.536;12.688;2023-05-07T01:19:11;41.78;;;28.52;;
22152;SDS011;11242;50.536;12.688;2023-05-07T01:21:43;44.22;;;28.33;;
22152;SDS011;11242;50.536;12.688;2023-05-07T01:24:12;41.47;;;27.80;;
22152;SDS011;11242;50.536;12.688;2023-05-07T01:26:38;42.67;;;27.58;;
22152;SDS011;11242;50.536;12.688;2023-05-07T01:29:04;39.83;;;26.15;;
22152;SDS011;11242;50.536;12.688;2023-05-07T01:31:29;34.05;;;24.45;;
22152;SDS011;11242;50.536;12.688;2023-05-07T01:33:56;34.67;;;25.02;;
22152;SDS011;11242;50.536;12.688;2023-05-07T01:36:24;32.33;;;22.92;;
22152;SDS011;11242;50.536;12.688;2023-05-07T01:38:52;32.67;;;23.52;;
22152;SDS011;11242;50.536;12.688;2023-05-07T01:41:18;36.55;;;25.23;;
22152;SDS011;11242;50.536;12.688;2023-05-07T01:43:45;37.22;;;25.38;;
22152;SDS011;11242;50.536;12.688;2023-05-07T01:46:12;34.90;;;24.23;;
22152;SDS011;11242;50.536;12.688;2023-05-07T01:48:39;38.00;;;24.15;;
22152;SDS011;11242;50.536;12.688;2023-05-07T01:51:05;31.75;;;22.35;;
22152;SDS011;11242;50.536;12.688;2023-05-07T01:53:37;32.53;;;22.92;;
22152;SDS011;11242;50.536;12.688;2023-05-07T01:56:04;35.13;;;22.58;;
22152;SDS011;11242;50.536;12.688;2023-05-07T01:58:30;32.22;;;23.48;;
22152;SDS011;11242;50.536;12.688;2023-05-07T02:00:56;32.25;;;21.60;;
22152;SDS011;11242;50.536;12.688;2023-05-07T02:03:22;32.17;;;21.83;;
22152;SDS011;11242;50.536;12.688;2023-05-07T02:05:57;29.95;;;20.42;;
22152;SDS011;11242;50.536;12.688;2023-05-07T02:08:30;28.13;;;19.63;;
22152;SDS011;11242;50.536;12.688;2023-05-07T02:10:56;28.48;;;20.20;;
22152;SDS011;11242;50.536;12.688;2023-05-07T02:13:21;28.75;;;21.35;;
22152;SDS011;11242;50.536;12.688;2023-05-07T02:15:49;31.15;;;22.23;;
22152;SDS011;11242;50.536;12.688;2023-05-07T02:18:16;31.40;;;21.70;;
22152;SDS011;11242;50.536;12.688;2023-05-07T02:20:42;28.55;;;20.45;;
22152;SDS011;11242;50.536;12.688;2023-05-07T02:23:08;28.77;;;19.50;;
22152;SDS011;11242;50.536;12.688;2023-05-07T02:25:33;27.25;;;19.58;;
22152;SDS011;11242;50.536;12.688;2023-05-07T02:27:59;29.40;;;20.98;;
22152;SDS011;11242;50.536;12.688;2023-05-07T02:30:40;33.92;;;22.33;;
22152;SDS011;11242;50.536;12.688;2023-05-07T02:33:06;29.23;;;21.00;;
22152;SDS011;11242;50.536;12.688;2023-05-07T02:35:33;26.05;;;18.67;;
22152;SDS011;11242;50.536;12.688;2023-05-07T02:37:59;27.75;;;19.20;;
22152;SDS011;11242;50.536;12.688;2023-05-07T02:40:25;33.13;;;21.25;;
22152;SDS011;11242;50.536;12.688;2023-05-07T02:42:50;43.75;;;23.55;;
22152;SDS011;11242;50.536;12.688;2023-05-07T02:45:17;34.78;;;22.70;;
22152;SDS011;11242;50.536;12.688;2023-05-07T02:47:43;40.95;;;24.48;;
22152;SDS011;11242;50.536;12.688;2023-05-07T02:50:09;42.42;;;23.67;;
22152;SDS011;11242;50.536;12.688;2023-05-07T02:52:35;74.97;;;26.52;;
22152;SDS011;11242;50.536;12.688;2023-05-07T02:55:00;76.18;;;27.17;;
22152;SDS011;11242;50.536;12.688;2023-05-07T02:57:26;127.78;;;32.25;;
22152;SDS011;11242;50.536;12.688;2023-05-07T02:59:51;124.78;;;31.55;;
22152;SDS011;11242;50.536;12.688;2023-05-07T03:02:19;170.63;;;33.60;;
22152;SDS011;11242;50.536;12.688;2023-05-07T03:04:45;285.23;;;41.38;;
22152;SDS011;11242;50.536;12.688;2023-05-07T03:07:10;104.75;;;29.98;;
22152;SDS011;11242;50.536;12.688;2023-05-07T03:09:36;96.80;;;29.75;;
22152;SDS011;11242;50.536;12.688;2023-05-07T03:12:02;153.55;;;32.67;;
22152;SDS011;11242;50.536;12.688;2023-05-07T03:14:27;83.15;;;29.15;;
22152;SDS011;11242;50.536;12.688;2023-05-07T03:16:53;104.35;;;29.63;;
22152;SDS011;11242;50.536;12.688;2023-05-07T03:19:19;161.90;;;34.83;;
22152;SDS011;11242;50.536;12.688;2023-05-07T03:21:44;122.10;;;33.47;;
22152;SDS011;11242;50.536;12.688;2023-05-07T03:24:10;107.00;;;31.35;;
22152;SDS011;11242;50.536;12.688;2023-05-07T03:26:36;97.47;;;32.58;;
22152;SDS011;11242;50.536;12.688;2023-05-07T03:29:01;83.30;;;32.63;;
22152;SDS011;11242;50.536;12.688;2023-05-07T03:31:27;108.25;;;32.13;;
22152;SDS011;11242;50.536;12.688;2023-05-07T03:33:54;211.18;;;39.63;;
22152;SDS011;11242;50.536;12.688;2023-05-07T03:36:21;188.50;;;39.08;;
22152;SDS011;11242;50.536;12.688;2023-05-07T03:38:47;144.07;;;39.10;;
22152;SDS011;11242;50.536;12.688;2023-05-07T03:41:16;111.05;;;33.55;;
22152;SDS011;11242;50.536;12.688;2023-05-07T03:43:43;146.45;;;34.88;;
22152;SDS011;11242;50.536;12.688;2023-05-07T03:46:10;49.47;;;27.60;;
22152;SDS011;11242;50.536;12.688;2023-05-07T03:48:36;33.97;;;22.98;;
22152;SDS011;11242;50.536;12.688;2023-05-07T03:51:02;36.13;;;23.45;;
22152;SDS011;11242;50.536;12.688;2023-05-07T03:53:31;33.15;;;22.23;;
22152;SDS011;11242;50.536;12.688;2023-05-07T03:55:56;29.00;;;21.27;;
22152;SDS011;11242;50.536;12.688;2023-05-07T03:58:22;26.70;;;20.23;;
22152;SDS011;11242;50.536;12.688;2023-05-07T04:00:49;25.05;;;19.42;;
22152;SDS011;11242;50.536;12.688;2023-05-07T04:03:22;25.60;;;19.02;;
22152;SDS011;11242;50.536;12.688;2023-05-07T04:05:49;18.55;;;14.80;;
22152;SDS011;11242;50.536;12.688;2023-05-07T04:08:15;18.33;;;14.60;;
22152;SDS011;11242;50.536;12.688;2023-05-07T04:10:45;19.70;;;14.23;;
22152;SDS011;11242;50.536;12.688;2023-05-07T04:13:11;19.05;;;14.73;;
22152;SDS011;11242;50.536;12.688;2023-05-07T04:15:37;18.80;;;14.23;;
22152;SDS011;11242;50.536;12.688;2023-05-07T04:18:06;23.23;;;16.40;;
22152;SDS011;11242;50.536;12.688;2023-05-07T04:20:33;21.13;;;15.63;;
22152;SDS011;11242;50.536;12.688;2023-05-07T04:23:02;22.00;;;15.15;;
22152;SDS011;11242;50.536;12.688;2023-05-07T04:25:28;23.38;;;15.00;;
22152;SDS011;11242;50.536;12.688;2023-05-07T04:30:28;18.83;;;15.13;;
22152;SDS011;11242;50.536;12.688;2023-05-07T04:32:53;18.40;;;14.98;;
22152;SDS011;11242;50.536;12.688;2023-05-07T04:35:20;21.45;;;16.35;;
22152;SDS011;11242;50.536;12.688;2023-05-07T04:37:45;21.98;;;16.90;;
22152;SDS011;11242;50.536;12.688;2023-05-07T04:40:12;24.75;;;17.45;;
22152;SDS011;11242;50.536;12.688;2023-05-07T04:42:37;25.48;;;19.23;;
22152;SDS011;11242;50.536;12.688;2023-05-07T04:45:03;23.58;;;18.63;;
22152;SDS011;11242;50.536;12.688;2023-05-07T04:47:32;28.10;;;20.60;;
22152;SDS011;11242;50.536;12.688;2023-05-07T04:50:00;24.10;;;18.00;;
22152;SDS011;11242;50.536;12.688;2023-05-07T04:52:26;22.00;;;17.60;;
22152;SDS011;11242;50.536;12.688;2023-05-07T04:54:52;25.52;;;19.25;;
22152;SDS011;11242;50.536;12.688;2023-05-07T04:57:17;29.20;;;21.23;;
22152;SDS011;11242;50.536;12.688;2023-05-07T04:59:43;25.50;;;20.58;;
22152;SDS011;11242;50.536;12.688;2023-05-07T05:02:10;28.40;;;21.00;;
22152;SDS011;11242;50.536;12.688;2023-05-07T05:04:36;27.20;;;20.63;;
22152;SDS011;11242;50.536;12.688;2023-05-07T05:07:03;32.20;;;21.40;;
22152;SDS011;11242;50.536;12.688;2023-05-07T05:09:29;29.60;;;23.15;;
22152;SDS011;11242;50.536;12.688;2023-05-07T05:11:55;34.67;;;24.55;;
22152;SDS011;11242;50.536;12.688;2023-05-07T05:14:21;29.98;;;23.42;;
22152;SDS011;11242;50.536;12.688;2023-05-07T05:16:46;24.13;;;19.20;;
22152;SDS011;11242;50.536;12.688;2023-05-07T05:19:12;25.10;;;19.90;;
22152;SDS011;11242;50.536;12.688;2023-05-07T05:21:39;24.48;;;20.27;;
22152;SDS011;11242;50.536;12.688;2023-05-07T05:24:07;25.50;;;19.73;;
22152;SDS011;11242;50.536;12.688;2023-05-07T05:26:33;24.83;;;19.80;;
22152;SDS011;11242;50.536;12.688;2023-05-07T05:29:00;22.20;;;17.90;;
22152;SDS011;11242;50.536;12.688;2023-05-07T05:31:27;23.35;;;18.77;;
22152;SDS011;11242;50.536;12.688;2023-05-07T05:33:53;25.63;;;19.85;;
22152;SDS011;11242;50.536;12.688;2023-05-07T05:36:19;25.08;;;19.65;;
22152;SDS011;11242;50.536;12.688;2023-05-07T05:38:46;25.75;;;19.48;;
22152;SDS011;11242;50.536;12.688;2023-05-07T05:41:12;27.17;;;20.40;;
22152;SDS011;11242;50.536;12.688;2023-05-07T05:43:38;25.13;;;19.52;;
22152;SDS011;11242;50.536;12.688;2023-05-07T05:46:03;25.70;;;19.27;;
22152;SDS011;11242;50.536;12.688;2023-05-07T05:48:29;24.30;;;18.77;;
22152;SDS011;11242;50.536;12.688;2023-05-07T05:50:57;25.58;;;18.95;;
22152;SDS011;11242;50.536;12.688;2023-05-07T05:53:23;22.20;;;16.83;;
22152;SDS011;11242;50.536;12.688;2023-05-07T05:55:49;22.73;;;17.83;;
22152;SDS011;11242;50.536;12.688;2023-05-07T05:58:14;18.38;;;16.25;;
22152;SDS011;11242;50.536;12.688;2023-05-07T06:00:45;20.83;;;16.83;;
22152;SDS011;11242;50.536;12.688;2023-05-07T06:03:11;20.20;;;15.57;;
22152;SDS011;11242;50.536;12.688;2023-05-07T06:05:37;20.55;;;16.00;;
22152;SDS011;11242;50.536;12.688;2023-05-07T06:08:03;19.73;;;16.35;;
22152;SDS011;11242;50.536;12.688;2023-05-07T06:10:31;18.45;;;16.00;;
22152;SDS011;11242;50.536;12.688;2023-05-07T06:12:57;18.85;;;15.68;;
22152;SDS011;11242;50.536;12.688;2023-05-07T06:15:23;19.98;;;16.30;;
22152;SDS011;11242;50.536;12.688;2023-05-07T06:17:49;20.23;;;16.77;;
22152;SDS011;11242;50.536;12.688;2023-05-07T06:20:15;21.13;;;16.88;;
22152;SDS011;11242;50.536;12.688;2023-05-07T06:22:40;21.23;;;17.10;;
22152;SDS011;11242;50.536;12.688;2023-05-07T06:25:08;21.35;;;18.10;;
22152;SDS011;11242;50.536;12.688;2023-05-07T06:27:33;22.58;;;18.35;;
22152;SDS011;11242;50.536;12.688;2023-05-07T06:29:59;19.35;;;17.05;;
22152;SDS011;11242;50.536;12.688;2023-05-07T06:32:25;19.77;;;16.38;;
22152;SDS011;11242;50.536;12.688;2023-05-07T06:34:51;17.55;;;15.05;;
22152;SDS011;11242;50.536;12.688;2023-05-07T06:37:17;16.70;;;14.52;;
22152;SDS011;11242;50.536;12.688;2023-05-07T06:39:59;16.08;;;14.27;;
22152;SDS011;11242;50.536;12.688;2023-05-07T06:42:25;15.95;;;13.68;;
22152;SDS011;11242;50.536;12.688;2023-05-07T06:44:56;16.27;;;14.23;;
22152;SDS011;11242;50.536;12.688;2023-05-07T06:47:23;15.68;;;14.07;;
22152;SDS011;11242;50.536;12.688;2023-05-07T06:49:52;16.48;;;14.75;;
22152;SDS011;11242;50.536;12.688;2023-05-07T06:52:21;16.23;;;14.63;;
22152;SDS011;11242;50.536;12.688;2023-05-07T06:54:49;15.45;;;13.88;;
22152;SDS011;11242;50.536;12.688;2023-05-07T06:57:16;16.02;;;14.45;;
22152;SDS011;11242;50.536;12.688;2023-05-07T06:59:42;15.85;;;14.27;;
22152;SDS011;11242;50.536;12.688;2023-05-07T07:02:07;14.77;;;13.27;;
22152;SDS011;11242;50.536;12.688;2023-05-07T07:04:34;16.77;;;15.07;;
22152;SDS011;11242;50.536;12.688;2023-05-07T07:07:04;15.00;;;13.50;;
22152;SDS011;11242;50.536;12.688;2023-05-07T07:09:29;15.57;;;14.07;;
22152;SDS011;11242;50.536;12.688;2023-05-07T07:11:56;15.95;;;14.35;;
22152;SDS011;11242;50.536;12.688;2023-05-07T07:14:22;16.17;;;14.57;;
22152;SDS011;11242;50.536;12.688;2023-05-07T07:16:50;15.73;;;14.02;;
22152;SDS011;11242;50.536;12.688;2023-05-07T07:19:17;15.65;;;13.95;;
22152;SDS011;11242;50.536;12.688;2023-05-07T07:21:46;14.52;;;13.05;;
22152;SDS011;11242;50.536;12.688;2023-05-07T07:24:13;15.95;;;13.48;;
22152;SDS011;11242;50.536;12.688;2023-05-07T07:26:44;15.07;;;13.48;;
22152;SDS011;11242;50.536;12.688;2023-05-07T07:29:10;15.43;;;12.48;;
22152;SDS011;11242;50.536;12.688;2023-05-07T07:31:35;15.70;;;13.60;;
22152;SDS011;11242;50.536;12.688;2023-05-07T07:34:01;16.88;;;13.85;;
22152;SDS011;11242;50.536;12.688;2023-05-07T07:36:27;15.10;;;13.48;;
22152;SDS011;11242;50.536;12.688;2023-05-07T07:38:53;12.77;;;11.18;;
22152;SDS011;11242;50.536;12.688;2023-05-07T07:41:19;12.30;;;11.00;;
22152;SDS011;11242;50.536;12.688;2023-05-07T07:43:44;13.90;;;11.80;;
22152;SDS011;11242;50.536;12.688;2023-05-07T07:46:12;13.15;;;11.85;;
22152;SDS011;11242;50.536;12.688;2023-05-07T07:48:37;12.98;;;11.10;;
22152;SDS011;11242;50.536;12.688;2023-05-07T07:51:03;13.73;;;12.25;;
22152;SDS011;11242;50.536;12.688;2023-05-07T07:53:29;12.00;;;10.75;;
22152;SDS011;11242;50.536;12.688;2023-05-07T07:55:55;12.98;;;11.20;;
22152;SDS011;11242;50.536;12.688;2023-05-07T07:58:23;12.18;;;10.88;;
22152;SDS011;11242;50.536;12.688;2023-05-07T08:00:50;11.57;;;10.43;;
22152;SDS011;11242;50.536;12.688;2023-05-07T08:03:16;12.13;;;10.82;;
22152;SDS011;11242;50.536;12.688;2023-05-07T08:05:45;11.75;;;10.55;;
22152;SDS011;11242;50.536;12.688;2023-05-07T08:08:11;10.65;;;9.65;;
22152;SDS011;11242;50.536;12.688;2023-05-07T08:10:38;11.13;;;10.02;;
22152;SDS011;11242;50.536;12.688;2023-05-07T08:13:09;11.00;;;9.90;;
22152;SDS011;11242;50.536;12.688;2023-05-07T08:15:37;10.52;;;9.43;;
22152;SDS011;11242;50.536;12.688;2023-05-07T08:18:03;11.13;;;10.05;;
22152;SDS011;11242;50.536;12.688;2023-05-07T08:20:29;10.25;;;9.25;;
22152;SDS011;11242;50.536;12.688;2023-05-07T08:22:55;10.90;;;9.90;;
22152;SDS011;11242;50.536;12.688;2023-05-07T08:25:21;10.30;;;9.30;;
22152;SDS011;11242;50.536;12.688;2023-05-07T08:27:47;10.20;;;9.20;;
22152;SDS011;11242;50.536;12.688;2023-05-07T08:30:14;9.52;;;8.60;;
22152;SDS011;11242;50.536;12.688;2023-05-07T08:32:40;9.70;;;8.70;;
22152;SDS011;11242;50.536;12.688;2023-05-07T08:35:05;9.50;;;8.60;;
22152;SDS011;11242;50.536;12.688;2023-05-07T08:37:31;9.82;;;8.80;;
22152;SDS011;11242;50.536;12.688;2023-05-07T08:39:58;10.35;;;8.95;;
22152;SDS011;11242;50.536;12.688;2023-05-07T08:42:28;9.32;;;8.43;;
22152;SDS011;11242;50.536;12.688;2023-05-07T08:44:54;10.13;;;9.13;;
22152;SDS011;11242;50.536;12.688;2023-05-07T08:47:23;10.15;;;8.82;;
22152;SDS011;11242;50.536;12.688;2023-05-07T08:49:57;9.43;;;8.52;;
22152;SDS011;11242;50.536;12.688;2023-05-07T08:52:23;9.50;;;8.13;;
22152;SDS011;11242;50.536;12.688;2023-05-07T08:54:50;9.88;;;8.85;;
22152;SDS011;11242;50.536;12.688;2023-05-07T08:57:16;9.93;;;8.93;;
22152;SDS011;11242;50.536;12.688;2023-05-07T08:59:42;9.88;;;8.85;;
22152;SDS011;11242;50.536;12.688;2023-05-07T09:02:09;9.45;;;8.55;;
22152;SDS011;11242;50.536;12.688;2023-05-07T09:04:36;18.25;;;15.85;;
22152;SDS011;11242;50.536;12.688;2023-05-07T09:07:02;27.10;;;19.77;;
22152;SDS011;11242;50.536;12.688;2023-05-07T09:09:34;16.98;;;12.20;;
22152;SDS011;11242;50.536;12.688;2023-05-07T09:12:01;14.77;;;13.25;;
22152;SDS011;11242;50.536;12.688;2023-05-07T09:14:31;9.50;;;8.60;;
22152;SDS011;11242;50.536;12.688;2023-05-07T09:16:57;8.73;;;7.90;;
22152;SDS011;11242;50.536;12.688;2023-05-07T09:19:24;8.38;;;7.53;;
22152;SDS011;11242;50.536;12.688;2023-05-07T09:22:01;9.13;;;7.57;;
22152;SDS011;11242;50.536;12.688;2023-05-07T09:24:31;9.52;;;8.63;;
22152;SDS011;11242;50.536;12.688;2023-05-07T09:27:01;8.85;;;7.93;;
22152;SDS011;11242;50.536;12.688;2023-05-07T09:29:28;9.13;;;8.23;;
22152;SDS011;11242;50.536;12.688;2023-05-07T09:31:55;10.05;;;9.15;;
22152;SDS011;11242;50.536;12.688;2023-05-07T09:34:21;9.88;;;8.50;;
22152;SDS011;11242;50.536;12.688;2023-05-07T09:36:47;8.70;;;7.80;;
22152;SDS011;11242;50.536;12.688;2023-05-07T09:39:13;8.10;;;7.30;;
22152;SDS011;11242;50.536;12.688;2023-05-07T09:41:48;9.48;;;8.55;;
22152;SDS011;11242;50.536;12.688;2023-05-07T09:44:25;9.68;;;8.30;;
22152;SDS011;11242;50.536;12.688;2023-05-07T09:46:53;10.77;;;9.65;;
22152;SDS011;11242;50.536;12.688;2023-05-07T09:49:28;9.73;;;8.73;;
22152;SDS011;11242;50.536;12.688;2023-05-07T09:52:00;10.63;;;8.75;;
22152;SDS011;11242;50.536;12.688;2023-05-07T09:54:30;10.13;;;8.90;;
22152;SDS011;11242;50.536;12.688;2023-05-07T09:56:57;9.48;;;8.57;;
22152;SDS011;11242;50.536;12.688;2023-05-07T09:59:25;9.70;;;8.77;;
22152;SDS011;11242;50.536;12.688;2023-05-07T10:01:52;9.52;;;8.50;;
22152;SDS011;11242;50.536;12.688;2023-05-07T10:04:23;10.80;;;9.70;;
22152;SDS011;11242;50.536;12.688;2023-05-07T10:06:50;8.82;;;7.85;;
22152;SDS011;11242;50.536;12.688;2023-05-07T10:09:17;9.32;;;8.25;;
22152;SDS011;11242;50.536;12.688;2023-05-07T10:11:44;8.73;;;7.60;;
22152;SDS011;11242;50.536;12.688;2023-05-07T10:14:10;8.95;;;8.05;;
22152;SDS011;11242;50.536;12.688;2023-05-07T10:16:39;8.23;;;7.43;;
22152;SDS011;11242;50.536;12.688;2023-05-07T10:19:10;8.50;;;7.60;;
22152;SDS011;11242;50.536;12.688;2023-05-07T10:21:36;10.52;;;7.20;;
22152;SDS011;11242;50.536;12.688;2023-05-07T10:26:57;8.70;;;7.32;;
22152;SDS011;11242;50.536;12.688;2023-05-07T10:29:39;8.77;;;7.45;;
22152;SDS011;11242;50.536;12.688;2023-05-07T10:35:11;7.85;;;7.00;;
22152;SDS011;11242;50.536;12.688;2023-05-07T10:37:44;7.07;;;6.38;;
22152;SDS011;11242;50.536;12.688;2023-05-07T10:40:10;7.50;;;6.68;;
22152;SDS011;11242;50.536;12.688;2023-05-07T10:42:37;6.90;;;6.20;;
22152;SDS011;11242;50.536;12.688;2023-05-07T10:45:15;7.13;;;6.50;;
22152;SDS011;11242;50.536;12.688;2023-05-07T10:50:33;7.65;;;6.10;;
22152;SDS011;11242;50.536;12.688;2023-05-07T10:55:48;6.90;;;6.20;;
22152;SDS011;11242;50.536;12.688;2023-05-07T10:58:26;7.13;;;6.43;;
22152;SDS011;11242;50.536;12.688;2023-05-07T11:01:01;6.72;;;6.03;;
22152;SDS011;11242;50.536;12.688;2023-05-07T11:03:33;15.48;;;8.38;;
22152;SDS011;11242;50.536;12.688;2023-05-07T11:06:09;7.68;;;6.50;;
22152;SDS011;11242;50.536;12.688;2023-05-07T11:08:57;7.05;;;6.35;;
22152;SDS011;11242;50.536;12.688;2023-05-07T11:14:43;7.20;;;6.50;;
22152;SDS011;11242;50.536;12.688;2023-05-07T11:17:20;7.22;;;6.55;;
22152;SDS011;11242;50.536;12.688;2023-05-07T11:19:54;7.53;;;6.13;;
22152;SDS011;11242;50.536;12.688;2023-05-07T11:22:37;6.90;;;6.18;;
22152;SDS011;11242;50.536;12.688;2023-05-07T11:25:10;6.95;;;6.22;;
22152;SDS011;11242;50.536;12.688;2023-05-07T11:27:42;9.57;;;6.40;;
22152;SDS011;11242;50.536;12.688;2023-05-07T11:30:08;7.25;;;6.55;;
22152;SDS011;11242;50.536;12.688;2023-05-07T11:32:34;8.25;;;6.50;;
22152;SDS011;11242;50.536;12.688;2023-05-07T11:35:00;6.70;;;6.10;;
22152;SDS011;11242;50.536;12.688;2023-05-07T11:37:26;8.27;;;6.75;;
22152;SDS011;11242;50.536;12.688;2023-05-07T11:40:02;7.97;;;6.80;;
22152;SDS011;11242;50.536;12.688;2023-05-07T11:42:36;6.50;;;5.90;;
22152;SDS011;11242;50.536;12.688;2023-05-07T11:45:03;6.53;;;5.82;;
22152;SDS011;11242;50.536;12.688;2023-05-07T11:47:30;6.63;;;5.80;;
22152;SDS011;11242;50.536;12.688;2023-05-07T11:49:56;11.02;;;6.65;;
22152;SDS011;11242;50.536;12.688;2023-05-07T11:52:27;6.65;;;5.95;;
22152;SDS011;11242;50.536;12.688;2023-05-07T11:54:53;7.55;;;6.85;;
22152;SDS011;11242;50.536;12.688;2023-05-07T11:57:23;8.23;;;6.03;;
22152;SDS011;11242;50.536;12.688;2023-05-07T11:59:56;7.70;;;6.55;;
22152;SDS011;11242;50.536;12.688;2023-05-07T12:02:23;7.40;;;6.65;;
22152;SDS011;11242;50.536;12.688;2023-05-07T12:04:50;6.65;;;6.05;;
22152;SDS011;11242;50.536;12.688;2023-05-07T12:07:16;6.85;;;6.07;;
22152;SDS011;11242;50.536;12.688;2023-05-07T12:09:43;6.80;;;6.10;;
22152;SDS011;11242;50.536;12.688;2023-05-07T12:12:09;8.57;;;7.40;;
22152;SDS011;11242;50.536;12.688;2023-05-07T12:14:41;7.28;;;6.57;;
22152;SDS011;11242;50.536;12.688;2023-05-07T12:17:08;7.15;;;6.15;;
22152;SDS011;11242;50.536;12.688;2023-05-07T12:19:35;6.95;;;6.25;;
22152;SDS011;11242;50.536;12.688;2023-05-07T12:22:02;8.10;;;6.35;;
22152;SDS011;11242;50.536;12.688;2023-05-07T12:24:28;7.00;;;6.30;;
22152;SDS011;11242;50.536;12.688;2023-05-07T12:26:54;6.78;;;6.18;;
22152;SDS011;11242;50.536;12.688;2023-05-07T12:29:23;7.30;;;6.00;;
22152;SDS011;11242;50.536;12.688;2023-05-07T12:31:49;6.68;;;6.05;;
22152;SDS011;11242;50.536;12.688;2023-05-07T12:34:15;6.85;;;6.25;;
22152;SDS011;11242;50.536;12.688;2023-05-07T12:36:41;11.38;;;6.40;;
22152;SDS011;11242;50.536;12.688;2023-05-07T12:39:07;6.97;;;6.18;;
22152;SDS011;11242;50.536;12.688;2023-05-07T12:41:57;6.50;;;5.38;;
22152;SDS011;11242;50.536;12.688;2023-05-07T12:44:32;8.65;;;6.07;;
22152;SDS011;11242;50.536;12.688;2023-05-07T12:47:02;7.22;;;6.53;;
22152;SDS011;11242;50.536;12.688;2023-05-07T12:49:28;5.90;;;5.40;;
22152;SDS011;11242;50.536;12.688;2023-05-07T12:51:53;7.20;;;6.50;;
22152;SDS011;11242;50.536;12.688;2023-05-07T12:54:29;6.55;;;5.53;;
22152;SDS011;11242;50.536;12.688;2023-05-07T12:57:00;6.07;;;5.45;;
22152;SDS011;11242;50.536;12.688;2023-05-07T12:59:36;6.55;;;5.95;;
22152;SDS011;11242;50.536;12.688;2023-05-07T13:02:02;6.50;;;5.90;;
22152;SDS011;11242;50.536;12.688;2023-05-07T13:04:28;6.10;;;5.50;;
22152;SDS011;11242;50.536;12.688;2023-05-07T13:06:54;6.20;;;5.60;;
22152;SDS011;11242;50.536;12.688;2023-05-07T13:09:19;5.85;;;5.35;;
22152;SDS011;11242;50.536;12.688;2023-05-07T13:11:45;5.78;;;5.28;;
22152;SDS011;11242;50.536;12.688;2023-05-07T13:14:10;5.60;;;5.10;;
22152;SDS011;11242;50.536;12.688;2023-05-07T13:16:37;5.85;;;5.35;;
22152;SDS011;11242;50.536;12.688;2023-05-07T13:19:02;7.68;;;6.97;;
22152;SDS011;11242;50.536;12.688;2023-05-07T13:21:28;11.52;;;7.13;;
22152;SDS011;11242;50.536;12.688;2023-05-07T13:23:55;7.38;;;5.70;;
22152;SDS011;11242;50.536;12.688;2023-05-07T13:26:21;13.05;;;11.68;;
22152;SDS011;11242;50.536;12.688;2023-05-07T13:28:46;10.55;;;9.55;;
22152;SDS011;11242;50.536;12.688;2023-05-07T13:31:13;5.65;;;5.15;;
22152;SDS011;11242;50.536;12.688;2023-05-07T13:33:39;14.00;;;10.88;;
22152;SDS011;11242;50.536;12.688;2023-05-07T13:36:04;11.63;;;9.93;;
22152;SDS011;11242;50.536;12.688;2023-05-07T13:38:30;7.75;;;7.00;;
22152;SDS011;11242;50.536;12.688;2023-05-07T13:40:56;7.88;;;6.95;;
22152;SDS011;11242;50.536;12.688;2023-05-07T13:43:22;9.48;;;8.07;;
22152;SDS011;11242;50.536;12.688;2023-05-07T13:45:49;10.00;;;8.48;;
22152;SDS011;11242;50.536;12.688;2023-05-07T13:48:15;7.43;;;6.60;;
22152;SDS011;11242;50.536;12.688;2023-05-07T13:50:41;8.02;;;7.32;;
22152;SDS011;11242;50.536;12.688;2023-05-07T13:53:07;6.25;;;5.75;;
22152;SDS011;11242;50.536;12.688;2023-05-07T13:55:33;6.85;;;5.90;;
22152;SDS011;11242;50.536;12.688;2023-05-07T13:57:59;6.88;;;6.22;;
22152;SDS011;11242;50.536;12.688;2023-05-07T14:00:26;6.40;;;5.90;;
22152;SDS011;11242;50.536;12.688;2023-05-07T14:02:53;6.95;;;5.40;;
22152;SDS011;11242;50.536;12.688;2023-05-07T14:05:19;6.70;;;6.10;;
22152;SDS011;11242;50.536;12.688;2023-05-07T14:07:45;7.00;;;6.30;;
22152;SDS011;11242;50.536;12.688;2023-05-07T14:10:12;6.80;;;6.20;;
22152;SDS011;11242;50.536;12.688;2023-05-07T14:12:38;9.95;;;6.28;;
22152;SDS011;11242;50.536;12.688;2023-05-07T14:15:04;7.13;;;6.43;;
22152;SDS011;11242;50.536;12.688;2023-05-07T14:17:30;8.35;;;6.30;;
22152;SDS011;11242;50.536;12.688;2023-05-07T14:19:56;6.40;;;5.90;;
22152;SDS011;11242;50.536;12.688;2023-05-07T14:22:22;6.53;;;6.03;;
22152;SDS011;11242;50.536;12.688;2023-05-07T14:24:48;6.57;;;6.00;;
22152;SDS011;11242;50.536;12.688;2023-05-07T14:27:14;8.25;;;7.45;;
22152;SDS011;11242;50.536;12.688;2023-05-07T14:29:41;7.03;;;6.43;;
22152;SDS011;11242;50.536;12.688;2023-05-07T14:32:07;7.93;;;7.15;;
22152;SDS011;11242;50.536;12.688;2023-05-07T14:34:33;8.80;;;8.00;;
22152;SDS011;11242;50.536;12.688;2023-05-07T14:36:59;9.00;;;8.20;;